sensor_id;sensor_type;location;lat;lon;timestamp;P1;durP1;ratioP1;P2;durP2;ratioP2
12585;SDS011;6358;50.760;0.282;2023-04-06T00:01:06;1.40;;;1.30;;
12585;SDS011;6358;50.760;0.282;2023-04-06T00:03:32;1.53;;;1.43;;
12585;SDS011;6358;50.760;0.282;2023-04-06T00:05:59;1.20;;;1.20;;
12585;SDS011;6358;50.760;0.282;2023-04-06T00:08:26;1.93;;;1.50;;
12585;SDS011;6358;50.760;0.282;2023-04-06T00:10:52;1.43;;;1.33;;
12585;SDS011;6358;50.760;0.282;2023-04-06T00:13:18;2.17;;;1.40;;
12585;SDS011;6358;50.760;0.282;2023-04-06T00:15:44;1.40;;;1.30;;
12585;SDS011;6358;50.760;0.282;2023-04-06T00:18:10;1.40;;;1.20;;
12585;SDS011;6358;50.760;0.282;2023-04-06T00:20:36;1.40;;;1.30;;
12585;SDS011;6358;50.760;0.282;2023-04-06T00:23:03;1.77;;;1.30;;
12585;SDS011;6358;50.760;0.282;2023-04-06T00:25:29;1.40;;;1.30;;
12585;SDS011;6358;50.760;0.282;2023-04-06T00:27:55;1.43;;;1.30;;
12585;SDS011;6358;50.760;0.282;2023-04-06T00:30:21;1.20;;;1.13;;
12585;SDS011;6358;50.760;0.282;2023-04-06T00:32:47;1.63;;;1.30;;
12585;SDS011;6358;50.760;0.282;2023-04-06T00:35:13;1.27;;;1.17;;
12585;SDS011;6358;50.760;0.282;2023-04-06T00:37:40;1.23;;;1.13;;
12585;SDS011;6358;50.760;0.282;2023-04-06T00:40:07;1.30;;;1.20;;
12585;SDS011;6358;50.760;0.282;2023-04-06T00:42:33;1.37;;;1.20;;
12585;SDS011;6358;50.760;0.282;2023-04-06T00:44:59;1.73;;;1.30;;
12585;SDS011;6358;50.760;0.282;2023-04-06T00:47:26;3.73;;;1.17;;
12585;SDS011;6358;50.760;0.282;2023-04-06T00:49:53;1.67;;;1.10;;
12585;SDS011;6358;50.760;0.282;2023-04-06T00:52:19;1.73;;;1.10;;
12585;SDS011;6358;50.760;0.282;2023-04-06T00:54:46;1.57;;;1.27;;
12585;SDS011;6358;50.760;0.282;2023-04-06T00:57:12;1.30;;;1.20;;
12585;SDS011;6358;50.760;0.282;2023-04-06T00:59:39;2.20;;;1.17;;
12585;SDS011;6358;50.760;0.282;2023-04-06T01:02:06;1.53;;;1.20;;
12585;SDS011;6358;50.760;0.282;2023-04-06T01:04:32;1.60;;;1.33;;
12585;SDS011;6358;50.760;0.282;2023-04-06T01:06:58;1.10;;;1.10;;
12585;SDS011;6358;50.760;0.282;2023-04-06T01:09:24;1.70;;;1.10;;
12585;SDS011;6358;50.760;0.282;2023-04-06T01:11:51;1.77;;;1.30;;
12585;SDS011;6358;50.760;0.282;2023-04-06T01:14:17;1.17;;;1.10;;
12585;SDS011;6358;50.760;0.282;2023-04-06T01:16:43;2.03;;;1.30;;
12585;SDS011;6358;50.760;0.282;2023-04-06T01:19:10;1.00;;;1.00;;
12585;SDS011;6358;50.760;0.282;2023-04-06T01:21:37;1.43;;;1.20;;
12585;SDS011;6358;50.760;0.282;2023-04-06T01:24:03;1.13;;;0.90;;
12585;SDS011;6358;50.760;0.282;2023-04-06T01:26:30;1.10;;;1.10;;
12585;SDS011;6358;50.760;0.282;2023-04-06T01:28:56;1.30;;;1.20;;
12585;SDS011;6358;50.760;0.282;2023-04-06T01:31:22;1.10;;;1.00;;
12585;SDS011;6358;50.760;0.282;2023-04-06T01:33:49;1.73;;;1.20;;
12585;SDS011;6358;50.760;0.282;2023-04-06T01:36:15;1.47;;;1.20;;
12585;SDS011;6358;50.760;0.282;2023-04-06T01:38:42;2.27;;;1.13;;
12585;SDS011;6358;50.760;0.282;2023-04-06T01:41:08;1.00;;;1.00;;
12585;SDS011;6358;50.760;0.282;2023-04-06T01:43:34;1.10;;;1.10;;
12585;SDS011;6358;50.760;0.282;2023-04-06T01:46:01;2.17;;;1.33;;
12585;SDS011;6358;50.760;0.282;2023-04-06T01:48:27;1.13;;;1.00;;
12585;SDS011;6358;50.760;0.282;2023-04-06T01:50:53;1.10;;;0.80;;
12585;SDS011;6358;50.760;0.282;2023-04-06T01:53:19;1.10;;;1.00;;
12585;SDS011;6358;50.760;0.282;2023-04-06T01:55:46;1.40;;;1.10;;
12585;SDS011;6358;50.760;0.282;2023-04-06T01:58:12;1.87;;;1.13;;
12585;SDS011;6358;50.760;0.282;2023-04-06T02:00:38;1.07;;;0.97;;
12585;SDS011;6358;50.760;0.282;2023-04-06T02:03:04;1.10;;;1.00;;
12585;SDS011;6358;50.760;0.282;2023-04-06T02:05:31;1.60;;;1.00;;
12585;SDS011;6358;50.760;0.282;2023-04-06T02:08:03;1.37;;;1.10;;
12585;SDS011;6358;50.760;0.282;2023-04-06T02:10:30;1.87;;;1.13;;
12585;SDS011;6358;50.760;0.282;2023-04-06T02:12:56;0.80;;;0.80;;
12585;SDS011;6358;50.760;0.282;2023-04-06T02:15:22;0.97;;;0.90;;
12585;SDS011;6358;50.760;0.282;2023-04-06T02:17:48;4.50;;;1.10;;
12585;SDS011;6358;50.760;0.282;2023-04-06T02:20:14;1.00;;;1.00;;
12585;SDS011;6358;50.760;0.282;2023-04-06T02:22:40;0.90;;;0.90;;
12585;SDS011;6358;50.760;0.282;2023-04-06T02:27:32;0.90;;;0.90;;
12585;SDS011;6358;50.760;0.282;2023-04-06T02:29:58;0.80;;;0.80;;
12585;SDS011;6358;50.760;0.282;2023-04-06T02:32:24;0.90;;;0.90;;
12585;SDS011;6358;50.760;0.282;2023-04-06T02:34:51;0.90;;;0.80;;
12585;SDS011;6358;50.760;0.282;2023-04-06T02:37:17;1.10;;;0.97;;
12585;SDS011;6358;50.760;0.282;2023-04-06T02:39:43;1.87;;;0.80;;
12585;SDS011;6358;50.760;0.282;2023-04-06T02:42:09;1.53;;;1.20;;
12585;SDS011;6358;50.760;0.282;2023-04-06T02:44:35;1.27;;;0.97;;
12585;SDS011;6358;50.760;0.282;2023-04-06T02:47:01;0.63;;;0.63;;
12585;SDS011;6358;50.760;0.282;2023-04-06T02:49:27;0.80;;;0.80;;
12585;SDS011;6358;50.760;0.282;2023-04-06T02:51:54;0.80;;;0.80;;
12585;SDS011;6358;50.760;0.282;2023-04-06T02:54:20;0.70;;;0.70;;
12585;SDS011;6358;50.760;0.282;2023-04-06T02:56:46;1.30;;;1.00;;
12585;SDS011;6358;50.760;0.282;2023-04-06T02:59:12;1.10;;;0.87;;
12585;SDS011;6358;50.760;0.282;2023-04-06T03:01:38;0.90;;;0.90;;
12585;SDS011;6358;50.760;0.282;2023-04-06T03:04:05;0.90;;;0.90;;
12585;SDS011;6358;50.760;0.282;2023-04-06T03:06:31;0.80;;;0.80;;
12585;SDS011;6358;50.760;0.282;2023-04-06T03:08:57;0.80;;;0.80;;
12585;SDS011;6358;50.760;0.282;2023-04-06T03:11:23;1.17;;;1.00;;
12585;SDS011;6358;50.760;0.282;2023-04-06T03:13:50;0.80;;;0.80;;
12585;SDS011;6358;50.760;0.282;2023-04-06T03:16:16;1.57;;;0.90;;
12585;SDS011;6358;50.760;0.282;2023-04-06T03:18:42;0.83;;;0.80;;
12585;SDS011;6358;50.760;0.282;2023-04-06T03:21:10;0.77;;;0.70;;
12585;SDS011;6358;50.760;0.282;2023-04-06T03:23:36;0.67;;;0.67;;
12585;SDS011;6358;50.760;0.282;2023-04-06T03:26:02;1.07;;;0.90;;
12585;SDS011;6358;50.760;0.282;2023-04-06T03:28:29;0.80;;;0.80;;
12585;SDS011;6358;50.760;0.282;2023-04-06T03:30:55;0.73;;;0.73;;
12585;SDS011;6358;50.760;0.282;2023-04-06T03:33:21;1.50;;;0.87;;
12585;SDS011;6358;50.760;0.282;2023-04-06T03:35:47;0.70;;;0.70;;
12585;SDS011;6358;50.760;0.282;2023-04-06T03:38:13;0.73;;;0.70;;
12585;SDS011;6358;50.760;0.282;2023-04-06T03:40:39;0.87;;;0.87;;
12585;SDS011;6358;50.760;0.282;2023-04-06T03:43:05;0.87;;;0.80;;
12585;SDS011;6358;50.760;0.282;2023-04-06T03:45:31;1.60;;;0.80;;
12585;SDS011;6358;50.760;0.282;2023-04-06T03:47:57;0.83;;;0.83;;
12585;SDS011;6358;50.760;0.282;2023-04-06T03:50:23;1.57;;;0.80;;
12585;SDS011;6358;50.760;0.282;2023-04-06T03:52:50;0.80;;;0.80;;
12585;SDS011;6358;50.760;0.282;2023-04-06T03:55:16;0.70;;;0.70;;
12585;SDS011;6358;50.760;0.282;2023-04-06T03:57:42;1.27;;;0.90;;
12585;SDS011;6358;50.760;0.282;2023-04-06T04:00:08;1.43;;;0.77;;
12585;SDS011;6358;50.760;0.282;2023-04-06T04:02:34;0.93;;;0.83;;
12585;SDS011;6358;50.760;0.282;2023-04-06T04:05:01;1.00;;;0.80;;
12585;SDS011;6358;50.760;0.282;2023-04-06T04:07:27;1.27;;;0.80;;
12585;SDS011;6358;50.760;0.282;2023-04-06T04:09:53;1.27;;;1.00;;
12585;SDS011;6358;50.760;0.282;2023-04-06T04:12:19;0.80;;;0.80;;
12585;SDS011;6358;50.760;0.282;2023-04-06T04:14:45;0.77;;;0.77;;
12585;SDS011;6358;50.760;0.282;2023-04-06T04:17:11;0.77;;;0.77;;
12585;SDS011;6358;50.760;0.282;2023-04-06T04:19:37;0.80;;;0.80;;
12585;SDS011;6358;50.760;0.282;2023-04-06T04:22:03;0.70;;;0.70;;
12585;SDS011;6358;50.760;0.282;2023-04-06T04:24:30;1.10;;;0.70;;
12585;SDS011;6358;50.760;0.282;2023-04-06T04:26:56;1.63;;;0.90;;
12585;SDS011;6358;50.760;0.282;2023-04-06T04:29:22;0.87;;;0.67;;
12585;SDS011;6358;50.760;0.282;2023-04-06T04:31:49;0.70;;;0.70;;
12585;SDS011;6358;50.760;0.282;2023-04-06T04:34:17;0.80;;;0.80;;
12585;SDS011;6358;50.760;0.282;2023-04-06T04:36:45;0.77;;;0.70;;
12585;SDS011;6358;50.760;0.282;2023-04-06T04:39:11;0.50;;;0.50;;
12585;SDS011;6358;50.760;0.282;2023-04-06T04:41:37;1.40;;;0.87;;
12585;SDS011;6358;50.760;0.282;2023-04-06T04:44:04;0.90;;;0.90;;
12585;SDS011;6358;50.760;0.282;2023-04-06T04:46:30;0.60;;;0.60;;
12585;SDS011;6358;50.760;0.282;2023-04-06T04:48:56;1.23;;;0.80;;
12585;SDS011;6358;50.760;0.282;2023-04-06T04:51:22;0.77;;;0.73;;
12585;SDS011;6358;50.760;0.282;2023-04-06T04:53:49;0.83;;;0.70;;
12585;SDS011;6358;50.760;0.282;2023-04-06T04:56:15;0.80;;;0.70;;
12585;SDS011;6358;50.760;0.282;2023-04-06T04:58:41;0.80;;;0.63;;
12585;SDS011;6358;50.760;0.282;2023-04-06T05:01:08;1.10;;;0.90;;
12585;SDS011;6358;50.760;0.282;2023-04-06T05:03:34;0.77;;;0.77;;
12585;SDS011;6358;50.760;0.282;2023-04-06T05:06:00;1.20;;;0.57;;
12585;SDS011;6358;50.760;0.282;2023-04-06T05:08:26;0.87;;;0.80;;
12585;SDS011;6358;50.760;0.282;2023-04-06T05:10:52;1.27;;;0.70;;
12585;SDS011;6358;50.760;0.282;2023-04-06T05:13:19;0.90;;;0.60;;
12585;SDS011;6358;50.760;0.282;2023-04-06T05:15:45;1.47;;;0.73;;
12585;SDS011;6358;50.760;0.282;2023-04-06T05:18:11;2.03;;;0.70;;
12585;SDS011;6358;50.760;0.282;2023-04-06T05:20:38;1.07;;;0.70;;
12585;SDS011;6358;50.760;0.282;2023-04-06T05:23:04;0.70;;;0.70;;
12585;SDS011;6358;50.760;0.282;2023-04-06T05:25:30;0.77;;;0.50;;
12585;SDS011;6358;50.760;0.282;2023-04-06T05:27:58;0.70;;;0.70;;
12585;SDS011;6358;50.760;0.282;2023-04-06T05:30:24;1.10;;;0.60;;
12585;SDS011;6358;50.760;0.282;2023-04-06T05:32:50;0.73;;;0.67;;
12585;SDS011;6358;50.760;0.282;2023-04-06T05:35:16;0.60;;;0.60;;
12585;SDS011;6358;50.760;0.282;2023-04-06T05:37:42;0.83;;;0.60;;
12585;SDS011;6358;50.760;0.282;2023-04-06T05:40:09;0.80;;;0.80;;
12585;SDS011;6358;50.760;0.282;2023-04-06T05:42:38;0.57;;;0.57;;
12585;SDS011;6358;50.760;0.282;2023-04-06T05:45:06;1.00;;;0.70;;
12585;SDS011;6358;50.760;0.282;2023-04-06T05:47:32;0.77;;;0.70;;
12585;SDS011;6358;50.760;0.282;2023-04-06T05:49:59;0.63;;;0.60;;
12585;SDS011;6358;50.760;0.282;2023-04-06T05:52:25;1.03;;;0.70;;
12585;SDS011;6358;50.760;0.282;2023-04-06T05:54:51;0.53;;;0.53;;
12585;SDS011;6358;50.760;0.282;2023-04-06T05:57:17;1.10;;;0.60;;
12585;SDS011;6358;50.760;0.282;2023-04-06T05:59:43;0.97;;;0.80;;
12585;SDS011;6358;50.760;0.282;2023-04-06T06:02:10;0.57;;;0.57;;
12585;SDS011;6358;50.760;0.282;2023-04-06T06:04:36;0.97;;;0.70;;
12585;SDS011;6358;50.760;0.282;2023-04-06T06:07:02;0.70;;;0.70;;
12585;SDS011;6358;50.760;0.282;2023-04-06T06:09:28;0.60;;;0.40;;
12585;SDS011;6358;50.760;0.282;2023-04-06T06:11:54;1.90;;;0.73;;
12585;SDS011;6358;50.760;0.282;2023-04-06T06:14:21;0.87;;;0.60;;
12585;SDS011;6358;50.760;0.282;2023-04-06T06:16:47;0.60;;;0.60;;
12585;SDS011;6358;50.760;0.282;2023-04-06T06:19:13;0.60;;;0.60;;
12585;SDS011;6358;50.760;0.282;2023-04-06T06:21:39;0.60;;;0.50;;
12585;SDS011;6358;50.760;0.282;2023-04-06T06:24:06;2.30;;;0.67;;
12585;SDS011;6358;50.760;0.282;2023-04-06T06:26:32;0.60;;;0.50;;
12585;SDS011;6358;50.760;0.282;2023-04-06T06:29:02;0.70;;;0.60;;
12585;SDS011;6358;50.760;0.282;2023-04-06T06:31:30;1.10;;;0.80;;
12585;SDS011;6358;50.760;0.282;2023-04-06T06:33:56;0.57;;;0.57;;
12585;SDS011;6358;50.760;0.282;2023-04-06T06:36:22;0.70;;;0.60;;
12585;SDS011;6358;50.760;0.282;2023-04-06T06:38:48;1.37;;;0.70;;
12585;SDS011;6358;50.760;0.282;2023-04-06T06:41:15;0.53;;;0.53;;
12585;SDS011;6358;50.760;0.282;2023-04-06T06:43:41;1.43;;;0.83;;
12585;SDS011;6358;50.760;0.282;2023-04-06T06:46:07;1.70;;;0.83;;
12585;SDS011;6358;50.760;0.282;2023-04-06T06:48:33;1.60;;;0.70;;
12585;SDS011;6358;50.760;0.282;2023-04-06T06:50:59;2.17;;;0.83;;
12585;SDS011;6358;50.760;0.282;2023-04-06T06:53:26;1.20;;;0.70;;
12585;SDS011;6358;50.760;0.282;2023-04-06T06:55:52;0.93;;;0.80;;
12585;SDS011;6358;50.760;0.282;2023-04-06T06:58:18;1.47;;;0.80;;
12585;SDS011;6358;50.760;0.282;2023-04-06T07:00:45;2.70;;;0.80;;
12585;SDS011;6358;50.760;0.282;2023-04-06T07:03:11;1.03;;;0.77;;
12585;SDS011;6358;50.760;0.282;2023-04-06T07:05:37;2.10;;;0.70;;
12585;SDS011;6358;50.760;0.282;2023-04-06T07:08:04;0.97;;;0.70;;
12585;SDS011;6358;50.760;0.282;2023-04-06T07:10:30;3.53;;;0.83;;
12585;SDS011;6358;50.760;0.282;2023-04-06T07:12:56;1.37;;;0.80;;
12585;SDS011;6358;50.760;0.282;2023-04-06T07:15:22;0.57;;;0.57;;
12585;SDS011;6358;50.760;0.282;2023-04-06T07:17:48;3.73;;;0.93;;
12585;SDS011;6358;50.760;0.282;2023-04-06T07:20:15;3.47;;;0.90;;
12585;SDS011;6358;50.760;0.282;2023-04-06T07:22:42;3.50;;;1.00;;
12585;SDS011;6358;50.760;0.282;2023-04-06T07:25:08;2.57;;;1.00;;
12585;SDS011;6358;50.760;0.282;2023-04-06T07:27:34;4.80;;;1.23;;
12585;SDS011;6358;50.760;0.282;2023-04-06T07:30:01;2.37;;;0.90;;
12585;SDS011;6358;50.760;0.282;2023-04-06T07:32:27;4.10;;;0.87;;
12585;SDS011;6358;50.760;0.282;2023-04-06T07:34:53;6.50;;;0.97;;
12585;SDS011;6358;50.760;0.282;2023-04-06T07:37:19;2.73;;;0.70;;
12585;SDS011;6358;50.760;0.282;2023-04-06T07:39:45;1.47;;;0.80;;
12585;SDS011;6358;50.760;0.282;2023-04-06T07:42:11;1.53;;;0.90;;
12585;SDS011;6358;50.760;0.282;2023-04-06T07:44:38;1.20;;;0.77;;
12585;SDS011;6358;50.760;0.282;2023-04-06T07:47:04;3.37;;;1.10;;
12585;SDS011;6358;50.760;0.282;2023-04-06T07:49:30;2.33;;;0.90;;
12585;SDS011;6358;50.760;0.282;2023-04-06T07:51:57;4.90;;;1.27;;
12585;SDS011;6358;50.760;0.282;2023-04-06T07:54:24;3.57;;;1.13;;
12585;SDS011;6358;50.760;0.282;2023-04-06T07:56:50;3.07;;;1.20;;
12585;SDS011;6358;50.760;0.282;2023-04-06T07:59:16;3.47;;;1.00;;
12585;SDS011;6358;50.760;0.282;2023-04-06T08:01:42;2.13;;;1.13;;
12585;SDS011;6358;50.760;0.282;2023-04-06T08:04:09;11.23;;;1.70;;
12585;SDS011;6358;50.760;0.282;2023-04-06T08:06:35;4.30;;;1.00;;
12585;SDS011;6358;50.760;0.282;2023-04-06T08:09:02;5.13;;;1.50;;
12585;SDS011;6358;50.760;0.282;2023-04-06T08:11:28;3.20;;;1.13;;
12585;SDS011;6358;50.760;0.282;2023-04-06T08:13:54;3.77;;;1.30;;
12585;SDS011;6358;50.760;0.282;2023-04-06T08:16:22;10.00;;;1.40;;
12585;SDS011;6358;50.760;0.282;2023-04-06T08:18:48;3.43;;;1.30;;
12585;SDS011;6358;50.760;0.282;2023-04-06T08:21:14;3.57;;;1.07;;
12585;SDS011;6358;50.760;0.282;2023-04-06T08:23:40;2.73;;;1.33;;
12585;SDS011;6358;50.760;0.282;2023-04-06T08:26:06;3.27;;;1.33;;
12585;SDS011;6358;50.760;0.282;2023-04-06T08:28:32;3.30;;;1.10;;
12585;SDS011;6358;50.760;0.282;2023-04-06T08:31:02;2.53;;;1.30;;
12585;SDS011;6358;50.760;0.282;2023-04-06T08:33:28;2.87;;;1.10;;
12585;SDS011;6358;50.760;0.282;2023-04-06T08:35:55;4.00;;;1.00;;
12585;SDS011;6358;50.760;0.282;2023-04-06T08:38:21;2.73;;;1.10;;
12585;SDS011;6358;50.760;0.282;2023-04-06T08:40:47;1.13;;;1.00;;
12585;SDS011;6358;50.760;0.282;2023-04-06T08:43:16;2.03;;;1.00;;
12585;SDS011;6358;50.760;0.282;2023-04-06T08:45:43;2.17;;;1.10;;
12585;SDS011;6358;50.760;0.282;2023-04-06T08:48:09;2.60;;;1.17;;
12585;SDS011;6358;50.760;0.282;2023-04-06T08:50:37;1.47;;;1.00;;
12585;SDS011;6358;50.760;0.282;2023-04-06T08:53:05;3.80;;;1.20;;
12585;SDS011;6358;50.760;0.282;2023-04-06T08:55:33;1.20;;;1.00;;
12585;SDS011;6358;50.760;0.282;2023-04-06T08:57:59;1.73;;;1.07;;
12585;SDS011;6358;50.760;0.282;2023-04-06T09:00:26;4.90;;;1.10;;
12585;SDS011;6358;50.760;0.282;2023-04-06T09:02:53;1.30;;;0.87;;
12585;SDS011;6358;50.760;0.282;2023-04-06T09:05:19;1.97;;;1.00;;
12585;SDS011;6358;50.760;0.282;2023-04-06T09:07:46;3.33;;;1.20;;
12585;SDS011;6358;50.760;0.282;2023-04-06T09:10:12;3.57;;;0.93;;
12585;SDS011;6358;50.760;0.282;2023-04-06T09:12:40;1.40;;;1.00;;
12585;SDS011;6358;50.760;0.282;2023-04-06T09:15:06;2.33;;;1.10;;
12585;SDS011;6358;50.760;0.282;2023-04-06T09:17:43;2.80;;;1.20;;
12585;SDS011;6358;50.760;0.282;2023-04-06T09:20:10;1.80;;;0.93;;
12585;SDS011;6358;50.760;0.282;2023-04-06T09:22:40;3.10;;;1.10;;
12585;SDS011;6358;50.760;0.282;2023-04-06T09:25:09;1.77;;;0.93;;
12585;SDS011;6358;50.760;0.282;2023-04-06T09:27:36;3.23;;;0.90;;
12585;SDS011;6358;50.760;0.282;2023-04-06T09:30:06;1.63;;;1.20;;
12585;SDS011;6358;50.760;0.282;2023-04-06T09:32:44;1.70;;;0.93;;
12585;SDS011;6358;50.760;0.282;2023-04-06T09:35:11;3.20;;;1.00;;
12585;SDS011;6358;50.760;0.282;2023-04-06T09:37:37;2.80;;;1.00;;
12585;SDS011;6358;50.760;0.282;2023-04-06T09:40:07;1.30;;;0.90;;
12585;SDS011;6358;50.760;0.282;2023-04-06T09:42:34;1.57;;;1.00;;
12585;SDS011;6358;50.760;0.282;2023-04-06T09:45:00;1.23;;;0.80;;
12585;SDS011;6358;50.760;0.282;2023-04-06T09:47:27;3.17;;;1.40;;
12585;SDS011;6358;50.760;0.282;2023-04-06T09:49:55;2.80;;;1.23;;
12585;SDS011;6358;50.760;0.282;2023-04-06T09:52:24;1.83;;;0.80;;
12585;SDS011;6358;50.760;0.282;2023-04-06T09:54:51;1.50;;;0.77;;
12585;SDS011;6358;50.760;0.282;2023-04-06T09:57:29;1.63;;;0.90;;
12585;SDS011;6358;50.760;0.282;2023-04-06T10:02:31;2.20;;;1.13;;
12585;SDS011;6358;50.760;0.282;2023-04-06T10:05:02;1.23;;;0.93;;
12585;SDS011;6358;50.760;0.282;2023-04-06T10:07:30;1.30;;;0.80;;
12585;SDS011;6358;50.760;0.282;2023-04-06T10:09:56;1.77;;;0.90;;
12585;SDS011;6358;50.760;0.282;2023-04-06T10:12:24;2.47;;;1.23;;
12585;SDS011;6358;50.760;0.282;2023-04-06T10:14:50;3.03;;;1.13;;
12585;SDS011;6358;50.760;0.282;2023-04-06T10:17:17;2.73;;;1.10;;
12585;SDS011;6358;50.760;0.282;2023-04-06T10:22:09;3.20;;;1.33;;
12585;SDS011;6358;50.760;0.282;2023-04-06T10:24:38;1.60;;;1.17;;
12585;SDS011;6358;50.760;0.282;2023-04-06T10:27:06;3.33;;;1.20;;
12585;SDS011;6358;50.760;0.282;2023-04-06T10:29:46;2.67;;;1.00;;
12585;SDS011;6358;50.760;0.282;2023-04-06T10:32:13;2.87;;;1.07;;
12585;SDS011;6358;50.760;0.282;2023-04-06T10:34:40;2.37;;;1.17;;
12585;SDS011;6358;50.760;0.282;2023-04-06T10:37:12;1.97;;;1.00;;
12585;SDS011;6358;50.760;0.282;2023-04-06T10:39:52;2.00;;;1.20;;
12585;SDS011;6358;50.760;0.282;2023-04-06T10:42:35;3.40;;;1.27;;
12585;SDS011;6358;50.760;0.282;2023-04-06T10:45:04;1.20;;;1.10;;
12585;SDS011;6358;50.760;0.282;2023-04-06T10:47:38;1.43;;;1.00;;
12585;SDS011;6358;50.760;0.282;2023-04-06T10:50:04;1.70;;;1.10;;
12585;SDS011;6358;50.760;0.282;2023-04-06T10:52:31;2.13;;;1.10;;
12585;SDS011;6358;50.760;0.282;2023-04-06T10:54:57;2.40;;;1.33;;
12585;SDS011;6358;50.760;0.282;2023-04-06T10:57:30;2.37;;;1.17;;
12585;SDS011;6358;50.760;0.282;2023-04-06T10:59:57;3.03;;;1.07;;
12585;SDS011;6358;50.760;0.282;2023-04-06T11:02:24;1.73;;;0.87;;
12585;SDS011;6358;50.760;0.282;2023-04-06T11:04:54;2.20;;;1.00;;
12585;SDS011;6358;50.760;0.282;2023-04-06T11:07:24;1.63;;;1.03;;
12585;SDS011;6358;50.760;0.282;2023-04-06T11:09:51;3.00;;;1.20;;
12585;SDS011;6358;50.760;0.282;2023-04-06T11:12:21;2.57;;;1.20;;
12585;SDS011;6358;50.760;0.282;2023-04-06T11:14:57;1.80;;;1.17;;
12585;SDS011;6358;50.760;0.282;2023-04-06T11:17:34;2.10;;;1.20;;
12585;SDS011;6358;50.760;0.282;2023-04-06T11:20:03;3.30;;;1.20;;
12585;SDS011;6358;50.760;0.282;2023-04-06T11:22:30;2.20;;;1.00;;
12585;SDS011;6358;50.760;0.282;2023-04-06T11:25:06;1.93;;;0.93;;
12585;SDS011;6358;50.760;0.282;2023-04-06T11:27:33;2.57;;;1.13;;
12585;SDS011;6358;50.760;0.282;2023-04-06T11:30:00;3.73;;;1.13;;
12585;SDS011;6358;50.760;0.282;2023-04-06T11:32:26;4.10;;;1.40;;
12585;SDS011;6358;50.760;0.282;2023-04-06T11:34:52;4.53;;;1.37;;
12585;SDS011;6358;50.760;0.282;2023-04-06T11:37:18;2.67;;;1.33;;
12585;SDS011;6358;50.760;0.282;2023-04-06T11:39:51;5.60;;;1.50;;
12585;SDS011;6358;50.760;0.282;2023-04-06T11:42:22;3.57;;;1.20;;
12585;SDS011;6358;50.760;0.282;2023-04-06T11:44:49;2.97;;;1.10;;
12585;SDS011;6358;50.760;0.282;2023-04-06T11:47:16;2.30;;;1.23;;
12585;SDS011;6358;50.760;0.282;2023-04-06T11:49:43;3.07;;;1.07;;
12585;SDS011;6358;50.760;0.282;2023-04-06T11:52:25;3.27;;;1.27;;
12585;SDS011;6358;50.760;0.282;2023-04-06T11:54:52;3.67;;;1.20;;
12585;SDS011;6358;50.760;0.282;2023-04-06T11:57:20;4.90;;;1.17;;
12585;SDS011;6358;50.760;0.282;2023-04-06T11:59:46;6.90;;;1.33;;
12585;SDS011;6358;50.760;0.282;2023-04-06T12:02:12;4.83;;;1.30;;
12585;SDS011;6358;50.760;0.282;2023-04-06T12:04:38;2.60;;;1.20;;
12585;SDS011;6358;50.760;0.282;2023-04-06T12:07:05;6.03;;;1.40;;
12585;SDS011;6358;50.760;0.282;2023-04-06T12:09:31;4.60;;;1.47;;
12585;SDS011;6358;50.760;0.282;2023-04-06T12:11:57;5.60;;;1.70;;
12585;SDS011;6358;50.760;0.282;2023-04-06T12:14:23;8.27;;;1.80;;
12585;SDS011;6358;50.760;0.282;2023-04-06T12:16:49;4.90;;;1.43;;
12585;SDS011;6358;50.760;0.282;2023-04-06T12:19:16;8.37;;;1.80;;
12585;SDS011;6358;50.760;0.282;2023-04-06T12:21:42;4.77;;;1.60;;
12585;SDS011;6358;50.760;0.282;2023-04-06T12:24:08;2.93;;;1.33;;
12585;SDS011;6358;50.760;0.282;2023-04-06T12:26:34;4.27;;;1.70;;
12585;SDS011;6358;50.760;0.282;2023-04-06T12:29:02;3.33;;;1.40;;
12585;SDS011;6358;50.760;0.282;2023-04-06T12:31:34;4.43;;;1.97;;
12585;SDS011;6358;50.760;0.282;2023-04-06T12:34:01;4.93;;;2.20;;
12585;SDS011;6358;50.760;0.282;2023-04-06T12:36:28;5.20;;;2.10;;
12585;SDS011;6358;50.760;0.282;2023-04-06T12:38:54;5.67;;;2.70;;
12585;SDS011;6358;50.760;0.282;2023-04-06T12:41:21;3.53;;;2.20;;
12585;SDS011;6358;50.760;0.282;2023-04-06T12:43:48;3.67;;;2.50;;
12585;SDS011;6358;50.760;0.282;2023-04-06T12:46:17;4.17;;;2.00;;
12585;SDS011;6358;50.760;0.282;2023-04-06T12:48:43;4.13;;;2.00;;
12585;SDS011;6358;50.760;0.282;2023-04-06T12:51:09;5.50;;;2.07;;
12585;SDS011;6358;50.760;0.282;2023-04-06T12:53:35;6.37;;;2.17;;
12585;SDS011;6358;50.760;0.282;2023-04-06T12:56:02;4.33;;;1.90;;
12585;SDS011;6358;50.760;0.282;2023-04-06T12:58:28;4.23;;;2.00;;
12585;SDS011;6358;50.760;0.282;2023-04-06T13:00:55;5.17;;;2.23;;
12585;SDS011;6358;50.760;0.282;2023-04-06T13:03:21;4.53;;;2.07;;
12585;SDS011;6358;50.760;0.282;2023-04-06T13:05:48;4.00;;;1.73;;
12585;SDS011;6358;50.760;0.282;2023-04-06T13:08:15;4.43;;;2.00;;
12585;SDS011;6358;50.760;0.282;2023-04-06T13:10:46;4.27;;;1.70;;
12585;SDS011;6358;50.760;0.282;2023-04-06T13:13:13;4.00;;;1.90;;
12585;SDS011;6358;50.760;0.282;2023-04-06T13:15:40;4.23;;;2.10;;
12585;SDS011;6358;50.760;0.282;2023-04-06T13:18:06;3.37;;;1.83;;
12585;SDS011;6358;50.760;0.282;2023-04-06T13:20:32;5.60;;;1.90;;
12585;SDS011;6358;50.760;0.282;2023-04-06T13:22:58;3.30;;;1.80;;
12585;SDS011;6358;50.760;0.282;2023-04-06T13:25:24;4.13;;;1.90;;
12585;SDS011;6358;50.760;0.282;2023-04-06T13:27:50;4.70;;;2.00;;
12585;SDS011;6358;50.760;0.282;2023-04-06T13:30:17;5.87;;;1.90;;
12585;SDS011;6358;50.760;0.282;2023-04-06T13:32:43;4.23;;;2.00;;
12585;SDS011;6358;50.760;0.282;2023-04-06T13:35:09;2.77;;;1.80;;
12585;SDS011;6358;50.760;0.282;2023-04-06T13:37:36;4.47;;;2.00;;
12585;SDS011;6358;50.760;0.282;2023-04-06T13:40:02;4.47;;;1.80;;
12585;SDS011;6358;50.760;0.282;2023-04-06T13:42:29;3.47;;;1.90;;
12585;SDS011;6358;50.760;0.282;2023-04-06T13:44:56;5.70;;;2.20;;
12585;SDS011;6358;50.760;0.282;2023-04-06T13:47:22;2.97;;;1.67;;
12585;SDS011;6358;50.760;0.282;2023-04-06T13:49:50;3.47;;;2.07;;
12585;SDS011;6358;50.760;0.282;2023-04-06T13:52:20;3.93;;;1.93;;
12585;SDS011;6358;50.760;0.282;2023-04-06T13:54:46;5.10;;;1.87;;
12585;SDS011;6358;50.760;0.282;2023-04-06T13:57:12;4.57;;;1.90;;
12585;SDS011;6358;50.760;0.282;2023-04-06T13:59:38;4.57;;;2.00;;
12585;SDS011;6358;50.760;0.282;2023-04-06T14:02:06;8.63;;;2.10;;
12585;SDS011;6358;50.760;0.282;2023-04-06T14:04:32;4.60;;;2.10;;
12585;SDS011;6358;50.760;0.282;2023-04-06T14:06:59;3.77;;;1.77;;
12585;SDS011;6358;50.760;0.282;2023-04-06T14:09:25;3.33;;;1.90;;
12585;SDS011;6358;50.760;0.282;2023-04-06T14:11:51;3.93;;;1.90;;
12585;SDS011;6358;50.760;0.282;2023-04-06T14:14:18;3.47;;;1.73;;
12585;SDS011;6358;50.760;0.282;2023-04-06T14:16:44;6.33;;;2.17;;
12585;SDS011;6358;50.760;0.282;2023-04-06T14:19:11;4.93;;;2.03;;
12585;SDS011;6358;50.760;0.282;2023-04-06T14:21:38;4.47;;;1.90;;
12585;SDS011;6358;50.760;0.282;2023-04-06T14:24:07;6.20;;;2.13;;
12585;SDS011;6358;50.760;0.282;2023-04-06T14:26:37;5.27;;;2.10;;
12585;SDS011;6358;50.760;0.282;2023-04-06T14:29:03;6.10;;;2.33;;
12585;SDS011;6358;50.760;0.282;2023-04-06T14:31:31;4.97;;;2.03;;
12585;SDS011;6358;50.760;0.282;2023-04-06T14:33:57;5.97;;;2.20;;
12585;SDS011;6358;50.760;0.282;2023-04-06T14:36:23;4.50;;;1.77;;
12585;SDS011;6358;50.760;0.282;2023-04-06T14:38:52;5.63;;;2.10;;
12585;SDS011;6358;50.760;0.282;2023-04-06T14:41:19;4.60;;;2.20;;
12585;SDS011;6358;50.760;0.282;2023-04-06T14:43:46;7.23;;;1.83;;
12585;SDS011;6358;50.760;0.282;2023-04-06T14:46:12;4.93;;;2.13;;
12585;SDS011;6358;50.760;0.282;2023-04-06T14:48:40;5.43;;;1.93;;
12585;SDS011;6358;50.760;0.282;2023-04-06T14:51:06;5.17;;;1.90;;
12585;SDS011;6358;50.760;0.282;2023-04-06T14:53:32;5.17;;;1.97;;
12585;SDS011;6358;50.760;0.282;2023-04-06T14:55:58;4.33;;;1.60;;
12585;SDS011;6358;50.760;0.282;2023-04-06T14:58:25;6.37;;;2.03;;
12585;SDS011;6358;50.760;0.282;2023-04-06T15:00:57;4.40;;;1.90;;
12585;SDS011;6358;50.760;0.282;2023-04-06T15:03:27;4.97;;;2.03;;
12585;SDS011;6358;50.760;0.282;2023-04-06T15:05:54;2.97;;;1.90;;